createdAt,value
2023-05-01T00:00:06.599Z,50.60
2023-05-01T00:01:02.635Z,51.01
2023-05-01T00:01:47.293Z,50.50
2023-05-01T00:02:45.463Z,50.93
2023-05-01T00:03:41.567Z,50.71
2023-05-01T00:04:37.058Z,49.38
2023-05-01T00:05:34.088Z,49.48
2023-05-01T00:06:30.218Z,50.93
2023-05-01T00:07:25.669Z,50.83
2023-05-01T00:08:21.682Z,51.01
2023-05-01T00:09:17.234Z,51.01
2023-05-01T00:10:12.828Z,50.50
2023-05-01T00:11:08.371Z,51.04
2023-05-01T00:12:04.407Z,51.01
2023-05-01T00:12:59.947Z,50.50
2023-05-01T00:13:55.979Z,50.73
2023-05-01T00:14:51.539Z,50.93
2023-05-01T00:15:47.605Z,50.93
2023-05-01T00:16:43.901Z,50.83
2023-05-01T00:17:39.938Z,51.34
2023-05-01T00:18:47.259Z,50.73
2023-05-01T00:19:43.273Z,51.14
2023-05-01T00:20:39.312Z,51.04
2023-05-01T00:21:35.371Z,50.52
2023-05-01T00:22:31.385Z,49.50
2023-05-01T00:23:26.950Z,50.73
2023-05-01T00:24:22.512Z,49.71
2023-05-01T00:25:18.107Z,50.22
2023-05-01T00:26:14.115Z,50.42
2023-05-01T00:27:10.205Z,50.22
2023-05-01T00:28:05.723Z,49.60
2023-05-01T00:29:01.273Z,50.73
2023-05-01T00:29:57.707Z,50.52
2023-05-01T00:30:52.864Z,50.52
2023-05-01T00:31:49.934Z,50.63
2023-05-01T00:32:46.074Z,50.55
2023-05-01T00:33:43.569Z,49.19
2023-05-01T00:34:39.433Z,49.19
2023-05-01T00:35:35.463Z,49.40
2023-05-01T00:36:31.017Z,50.55
2023-05-01T00:37:27.064Z,49.52
2023-05-01T00:38:23.189Z,50.14
2023-05-01T00:39:19.213Z,49.83
2023-05-01T00:40:15.256Z,49.63
2023-05-01T00:41:11.301Z,50.24
2023-05-01T00:42:07.337Z,50.75
2023-05-01T00:43:02.882Z,49.93
2023-05-01T00:43:58.437Z,49.52
2023-05-01T00:44:55.044Z,50.55
2023-05-01T00:45:51.159Z,49.73
2023-05-01T00:46:47.120Z,50.55
2023-05-01T00:47:42.778Z,49.63
2023-05-01T00:48:38.242Z,50.55
2023-05-01T00:49:35.342Z,50.96
2023-05-01T00:50:30.910Z,50.75
2023-05-01T00:51:27.035Z,50.55
2023-05-01T00:52:23.061Z,49.42
2023-05-01T00:53:18.631Z,49.63
2023-05-01T00:54:15.658Z,49.52
2023-05-01T00:55:11.706Z,50.34
2023-05-01T00:56:07.755Z,50.85
2023-05-01T00:57:03.825Z,50.45
2023-05-01T00:58:00.910Z,50.85
2023-05-01T00:59:04.222Z,49.83
2023-05-01T01:00:01.240Z,50.85
2023-05-01T01:00:57.346Z,50.75
2023-05-01T01:01:56.171Z,51.26
2023-05-01T01:02:50.502Z,51.06
2023-05-01T01:03:46.540Z,50.85
2023-05-01T01:04:42.688Z,50.96
2023-05-01T01:05:41.274Z,50.75
2023-05-01T01:06:39.449Z,50.75
2023-05-01T01:07:35.473Z,51.29
2023-05-01T01:08:32.766Z,50.98
2023-05-01T01:09:27.578Z,50.96
2023-05-01T01:10:23.683Z,51.08
2023-05-01T01:11:19.684Z,50.88
2023-05-01T01:12:16.758Z,51.18
2023-05-01T01:13:12.833Z,50.98
2023-05-01T01:14:09.840Z,50.78
2023-05-01T01:15:05.861Z,50.67
2023-05-01T01:16:01.892Z,50.88
2023-05-01T01:16:57.992Z,50.57
2023-05-01T01:17:54.025Z,51.29
2023-05-01T01:18:50.035Z,50.98
2023-05-01T01:19:46.086Z,50.78
2023-05-01T01:20:42.143Z,50.98
2023-05-01T01:21:39.351Z,51.59
2023-05-01T01:22:35.569Z,51.59
2023-05-01T01:23:31.587Z,51.50
2023-05-01T01:24:27.647Z,51.39
2023-05-01T01:25:23.687Z,51.08
2023-05-01T01:26:20.728Z,51.08
2023-05-01T01:27:16.804Z,50.88
2023-05-01T01:28:12.837Z,50.78
2023-05-01T01:29:08.863Z,51.18
2023-05-01T01:30:05.987Z,51.39
2023-05-01T01:31:02.108Z,50.98
2023-05-01T01:31:58.068Z,50.98
2023-05-01T01:32:54.178Z,50.88
2023-05-01T01:33:50.189Z,51.18
2023-05-01T01:34:46.249Z,51.90
2023-05-01T01:35:43.288Z,51.72
2023-05-01T01:36:40.358Z,50.80
2023-05-01T01:37:36.438Z,50.88
2023-05-01T01:38:32.508Z,51.51
2023-05-01T01:39:29.628Z,51.42
2023-05-01T01:40:25.897Z,50.78
2023-05-01T01:41:21.805Z,51.21
2023-05-01T01:42:17.809Z,51.50
2023-05-01T01:43:13.884Z,51.42
2023-05-01T01:44:09.892Z,51.62
2023-05-01T01:45:05.939Z,51.10
2023-05-01T01:46:02.059Z,51.42
2023-05-01T01:46:58.136Z,51.42
2023-05-01T01:47:54.209Z,51.21
2023-05-01T01:48:50.294Z,51.62
2023-05-01T01:49:46.368Z,51.72
2023-05-01T01:50:42.417Z,51.72
2023-05-01T01:51:38.568Z,51.72
2023-05-01T01:52:34.518Z,51.51
2023-05-01T01:53:30.681Z,51.31
2023-05-01T01:54:27.785Z,51.51
2023-05-01T01:55:23.839Z,51.31
2023-05-01T01:56:20.986Z,51.31
2023-05-01T01:57:17.029Z,51.01
2023-05-01T01:58:13.247Z,51.72
2023-05-01T01:59:10.057Z,51.62
2023-05-01T02:00:07.141Z,51.44
2023-05-01T02:01:05.241Z,52.05
2023-05-01T02:02:01.355Z,52.05
2023-05-01T02:02:57.529Z,51.03
2023-05-01T02:03:54.689Z,51.85
2023-05-01T02:04:51.611Z,51.85
2023-05-01T02:05:47.679Z,52.26
2023-05-01T02:06:43.749Z,52.26
2023-05-01T02:07:39.735Z,51.85
2023-05-01T02:08:35.809Z,51.75
2023-05-01T02:09:31.996Z,52.56
2023-05-01T02:10:28.915Z,52.67
2023-05-01T02:11:24.997Z,51.54
2023-05-01T02:12:21.101Z,51.95
2023-05-01T02:13:17.133Z,52.26
2023-05-01T02:14:13.223Z,51.95
2023-05-01T02:15:09.221Z,52.77
2023-05-01T02:16:05.336Z,52.77
2023-05-01T02:17:01.366Z,52.36
2023-05-01T02:17:57.463Z,52.67
2023-05-01T02:18:53.997Z,52.08
2023-05-01T02:19:50.067Z,52.67
2023-05-01T02:20:46.121Z,51.85
2023-05-01T02:21:42.183Z,51.77
2023-05-01T02:22:38.233Z,52.49
2023-05-01T02:23:34.375Z,52.59
2023-05-01T02:24:30.359Z,53.20
2023-05-01T02:25:29.471Z,52.59
2023-05-01T02:26:23.573Z,52.59
2023-05-01T02:27:19.594Z,52.28
2023-05-01T02:28:15.647Z,53.10
2023-05-01T02:29:11.712Z,52.90
2023-05-01T02:30:07.754Z,53.10
2023-05-01T02:31:03.803Z,53.41
2023-05-01T02:32:03.428Z,53.10
2023-05-01T02:33:00.541Z,52.59
2023-05-01T02:33:56.447Z,52.69
2023-05-01T02:34:53.497Z,52.69
2023-05-01T02:35:49.624Z,53.00
2023-05-01T02:36:45.622Z,52.59
2023-05-01T02:37:41.674Z,52.69
2023-05-01T02:38:37.749Z,53.51
2023-05-01T02:39:33.819Z,53.51
2023-05-01T02:40:29.886Z,53.85
2023-05-01T02:41:25.937Z,53.51
2023-05-01T02:42:21.976Z,53.31
2023-05-01T02:43:18.023Z,52.59
2023-05-01T02:44:14.127Z,53.41
2023-05-01T02:45:10.338Z,53.54
2023-05-01T02:46:06.418Z,53.64
2023-05-01T02:47:02.484Z,52.49
2023-05-01T02:47:58.563Z,53.13
2023-05-01T02:48:54.497Z,53.13
2023-05-01T02:49:51.688Z,53.54
2023-05-01T02:50:47.715Z,53.74
2023-05-01T02:51:43.771Z,53.33
2023-05-01T02:52:39.934Z,53.64
2023-05-01T02:53:35.970Z,53.74
2023-05-01T02:54:32.012Z,53.44
2023-05-01T02:55:28.129Z,53.85
2023-05-01T02:56:25.147Z,54.05
2023-05-01T02:57:21.297Z,53.13
2023-05-01T02:58:06.517Z,53.44
2023-05-01T02:59:02.794Z,53.33
2023-05-01T02:59:58.818Z,53.23
2023-05-01T03:00:55.937Z,53.23
2023-05-01T03:01:51.981Z,54.46
2023-05-01T03:02:49.962Z,54.08
2023-05-01T03:03:46.133Z,54.08
2023-05-01T03:04:43.274Z,54.79
2023-05-01T03:05:40.110Z,54.49
2023-05-01T03:06:36.191Z,54.05
2023-05-01T03:07:32.190Z,54.38
2023-05-01T03:08:28.283Z,54.46
2023-05-01T03:09:24.362Z,54.25
2023-05-01T03:10:20.429Z,53.87
2023-05-01T03:11:16.499Z,53.95
2023-05-01T03:12:12.537Z,54.25
2023-05-01T03:13:08.675Z,54.08
2023-05-01T03:14:05.683Z,53.87
2023-05-01T03:15:01.757Z,54.18
2023-05-01T03:15:57.856Z,53.36
2023-05-01T03:16:53.912Z,53.36
2023-05-01T03:17:51.113Z,53.97
2023-05-01T03:18:47.090Z,53.36
2023-05-01T03:19:43.149Z,54.08
2023-05-01T03:20:39.265Z,54.49
2023-05-01T03:21:35.271Z,54.69
2023-05-01T03:22:32.641Z,54.38
2023-05-01T03:23:29.369Z,54.08
2023-05-01T03:24:26.973Z,54.41
2023-05-01T03:25:22.753Z,53.97
2023-05-01T03:26:21.030Z,54.28
2023-05-01T03:27:17.110Z,53.97
2023-05-01T03:28:13.205Z,54.41
2023-05-01T03:29:09.202Z,54.49
2023-05-01T03:30:05.278Z,53.97
2023-05-01T03:31:12.585Z,54.08
2023-05-01T03:32:09.658Z,54.00
2023-05-01T03:33:05.700Z,54.38
2023-05-01T03:34:02.662Z,54.49
2023-05-01T03:34:58.745Z,54.18
2023-05-01T03:35:55.819Z,53.87
2023-05-01T03:36:51.808Z,53.59
2023-05-01T03:37:48.928Z,54.10
2023-05-01T03:38:45.904Z,53.89
2023-05-01T03:39:41.906Z,53.69
2023-05-01T03:40:37.996Z,54.00
2023-05-01T03:41:45.285Z,53.89
2023-05-01T03:42:41.478Z,54.10
2023-05-01T03:43:37.504Z,54.10
2023-05-01T03:44:33.583Z,54.51
2023-05-01T03:45:29.613Z,54.51
2023-05-01T03:46:26.226Z,54.08
2023-05-01T03:47:22.878Z,54.00
2023-05-01T03:48:18.912Z,54.51
2023-05-01T03:49:16.503Z,54.00
2023-05-01T03:50:12.786Z,54.00
2023-05-01T03:51:08.860Z,54.10
2023-05-01T03:51:54.020Z,54.00
2023-05-01T03:53:02.190Z,54.00
2023-05-01T03:53:59.263Z,54.61
2023-05-01T03:54:56.320Z,54.82
2023-05-01T03:55:52.402Z,54.00
2023-05-01T03:56:49.438Z,53.79
2023-05-01T03:57:45.551Z,54.41
2023-05-01T03:58:41.554Z,54.21
2023-05-01T03:59:38.568Z,54.00
2023-05-01T04:00:34.645Z,53.59
2023-05-01T04:01:30.740Z,54.00
2023-05-01T04:02:27.834Z,54.61
2023-05-01T04:03:23.834Z,54.30
2023-05-01T04:04:28.427Z,54.61
2023-05-01T04:05:32.218Z,54.51
2023-05-01T04:06:28.314Z,53.92
2023-05-01T04:07:24.332Z,54.13
2023-05-01T04:08:20.335Z,54.64
2023-05-01T04:09:16.451Z,54.00
2023-05-01T04:10:12.436Z,54.64
2023-05-01T04:11:08.539Z,54.02
2023-05-01T04:12:04.571Z,54.53
2023-05-01T04:13:01.732Z,54.72
2023-05-01T04:13:57.635Z,53.81
2023-05-01T04:14:53.709Z,54.43
2023-05-01T04:15:50.834Z,54.10
2023-05-01T04:16:46.892Z,54.10
2023-05-01T04:17:42.921Z,54.00
2023-05-01T04:18:39.031Z,55.13
2023-05-01T04:19:34.955Z,53.81
2023-05-01T04:20:32.007Z,53.69
2023-05-01T04:21:28.075Z,54.02
2023-05-01T04:22:24.119Z,54.33
2023-05-01T04:23:20.207Z,54.33
2023-05-01T04:24:17.290Z,54.21
2023-05-01T04:25:14.333Z,53.92
2023-05-01T04:26:11.354Z,54.30
2023-05-01T04:27:07.376Z,54.30
2023-05-01T04:28:03.431Z,53.69
2023-05-01T04:28:59.595Z,53.89
2023-05-01T04:29:55.844Z,55.05
2023-05-01T04:30:52.683Z,54.13
2023-05-01T04:31:48.836Z,54.64
2023-05-01T04:32:44.986Z,53.72
2023-05-01T04:33:40.931Z,53.81
2023-05-01T04:34:36.998Z,54.13
2023-05-01T04:35:33.059Z,54.02
2023-05-01T04:36:30.228Z,53.92
2023-05-01T04:37:37.581Z,54.64
2023-05-01T04:38:34.614Z,54.23
2023-05-01T04:39:41.932Z,54.02
2023-05-01T04:40:37.988Z,53.92
2023-05-01T04:41:34.109Z,54.23
2023-05-01T04:42:30.209Z,54.02
2023-05-01T04:43:26.223Z,54.02
2023-05-01T04:44:22.239Z,54.82
2023-05-01T04:45:18.341Z,54.13
2023-05-01T04:46:14.364Z,53.72
2023-05-01T04:47:11.575Z,54.13
2023-05-01T04:48:18.752Z,54.53
2023-05-01T04:49:14.783Z,54.30
2023-05-01T04:50:10.894Z,54.85
2023-05-01T04:51:07.930Z,54.23
2023-05-01T04:52:03.950Z,54.23
2023-05-01T04:53:00.107Z,54.02
2023-05-01T04:53:57.102Z,54.33
2023-05-01T04:54:53.177Z,54.43
2023-05-01T04:55:49.218Z,54.13
2023-05-01T04:56:45.313Z,54.00
2023-05-01T04:57:41.623Z,54.13
2023-05-01T04:58:37.713Z,53.92
2023-05-01T04:59:33.803Z,53.51
2023-05-01T05:00:42.211Z,53.38
2023-05-01T05:01:38.296Z,53.92
2023-05-01T05:02:34.406Z,53.79
2023-05-01T05:03:30.452Z,53.72
2023-05-01T05:04:37.750Z,53.89
2023-05-01T05:05:33.799Z,53.10
2023-05-01T05:06:29.936Z,53.20
2023-05-01T05:07:25.929Z,52.87
2023-05-01T05:08:22.133Z,53.51
2023-05-01T05:09:20.085Z,53.08
2023-05-01T05:10:14.183Z,52.76
2023-05-01T05:11:10.203Z,53.08
2023-05-01T05:12:07.256Z,53.17
2023-05-01T05:13:03.330Z,52.97
2023-05-01T05:13:59.424Z,52.97
2023-05-01T05:14:55.411Z,52.97
2023-05-01T05:15:52.568Z,52.76
2023-05-01T05:16:48.801Z,52.76
2023-05-01T05:17:47.176Z,52.56
2023-05-01T05:18:44.258Z,52.76
2023-05-01T05:19:41.249Z,52.76
2023-05-01T05:20:37.244Z,52.66
2023-05-01T05:21:34.369Z,52.15
2023-05-01T05:22:30.346Z,52.76
2023-05-01T05:23:27.519Z,52.87
2023-05-01T05:24:23.483Z,52.04
2023-05-01T05:25:21.589Z,52.04
2023-05-01T05:26:19.321Z,52.25
2023-05-01T05:27:17.828Z,52.25
2023-05-01T05:28:16.388Z,52.04
2023-05-01T05:29:15.159Z,51.74
2023-05-01T05:30:13.679Z,52.04
2023-05-01T05:31:13.994Z,51.92
2023-05-01T05:32:11.065Z,51.95
2023-05-01T05:33:11.656Z,52.23
2023-05-01T05:34:10.204Z,52.12
2023-05-01T05:35:08.998Z,52.23
2023-05-01T05:36:07.413Z,51.95
2023-05-01T05:37:04.399Z,52.04
2023-05-01T05:38:04.144Z,52.15
2023-05-01T05:39:01.008Z,52.02
2023-05-01T05:39:58.279Z,52.15
2023-05-01T05:40:57.604Z,51.51
2023-05-01T05:41:54.764Z,52.33
2023-05-01T05:42:53.240Z,51.82
2023-05-01T05:43:52.913Z,51.51
2023-05-01T05:44:50.340Z,51.51
2023-05-01T05:45:48.615Z,52.00
2023-05-01T05:46:48.496Z,51.72
2023-05-01T05:47:46.895Z,51.31
2023-05-01T05:48:46.418Z,51.31
2023-05-01T05:49:46.867Z,51.18
2023-05-01T05:50:45.548Z,51.28
2023-05-01T05:51:42.687Z,51.59
2023-05-01T05:52:42.477Z,51.59
2023-05-01T05:53:41.924Z,51.39
2023-05-01T05:54:51.346Z,51.48
2023-05-01T05:55:48.554Z,51.56
2023-05-01T05:56:47.025Z,51.07
2023-05-01T05:57:45.170Z,51.87
2023-05-01T05:58:42.357Z,50.74
2023-05-01T05:59:39.145Z,51.15
2023-05-01T06:00:24.232Z,50.85
2023-05-01T06:01:20.214Z,50.95
2023-05-01T06:02:16.292Z,51.36
2023-05-01T06:03:13.447Z,51.36
2023-05-01T06:04:09.378Z,51.13
2023-05-01T06:05:05.412Z,50.74
2023-05-01T06:06:01.486Z,51.03
2023-05-01T06:06:58.770Z,50.42
2023-05-01T06:07:56.367Z,51.03
2023-05-01T06:08:53.379Z,50.70
2023-05-01T06:09:49.471Z,49.67
2023-05-01T06:10:47.370Z,49.77
2023-05-01T06:11:43.683Z,49.67
2023-05-01T06:12:41.239Z,49.57
2023-05-01T06:13:27.286Z,50.16
2023-05-01T06:14:24.388Z,49.85
2023-05-01T06:15:20.467Z,49.96
2023-05-01T06:16:16.569Z,49.85
2023-05-01T06:17:12.619Z,49.85
2023-05-01T06:18:09.707Z,49.42
2023-05-01T06:19:10.073Z,49.55
2023-05-01T06:20:06.132Z,49.22
2023-05-01T06:21:03.212Z,49.11
2023-05-01T06:21:59.293Z,48.71
2023-05-01T06:23:06.679Z,48.68
2023-05-01T06:24:02.719Z,49.09
2023-05-01T06:24:58.814Z,48.48
2023-05-01T06:25:55.827Z,48.79
2023-05-01T06:26:51.862Z,48.05
2023-05-01T06:27:50.406Z,48.46
2023-05-01T06:28:48.932Z,48.35
2023-05-01T06:29:45.969Z,47.85
2023-05-01T06:30:43.188Z,48.13
2023-05-01T06:31:41.722Z,48.33
2023-05-01T06:32:38.783Z,48.51
2023-05-01T06:33:35.788Z,48.21
2023-05-01T06:34:31.905Z,48.18
2023-05-01T06:35:28.182Z,47.57
2023-05-01T06:36:24.223Z,47.14
2023-05-01T06:37:20.272Z,47.53
2023-05-01T06:38:17.517Z,46.41
2023-05-01T06:39:13.388Z,47.12
2023-05-01T06:40:09.415Z,46.81
2023-05-01T06:41:05.462Z,46.71
2023-05-01T06:42:01.503Z,46.79
2023-05-01T06:42:57.516Z,46.08
2023-05-01T06:43:53.603Z,45.98
2023-05-01T06:44:49.666Z,46.08
2023-05-01T06:45:45.697Z,45.67
2023-05-01T06:46:41.791Z,46.15
2023-05-01T06:47:37.804Z,45.75
2023-05-01T06:48:33.868Z,45.85
2023-05-01T06:49:29.899Z,45.85
2023-05-01T06:50:25.937Z,45.73
2023-05-01T06:51:22.014Z,44.81
2023-05-01T06:52:18.055Z,44.69
2023-05-01T06:53:14.099Z,45.00
2023-05-01T06:54:10.158Z,45.01
2023-05-01T06:55:07.256Z,44.79
2023-05-01T06:56:03.277Z,44.69
2023-05-01T06:56:59.338Z,44.79
2023-05-01T06:57:56.373Z,44.97
2023-05-01T06:58:52.501Z,44.97
2023-05-01T06:59:48.062Z,44.75
2023-05-01T07:00:43.611Z,44.75
2023-05-01T07:01:39.192Z,44.32
2023-05-01T07:02:34.799Z,42.90
2023-05-01T07:03:30.267Z,43.00
2023-05-01T07:04:25.728Z,43.61
2023-05-01T07:05:21.256Z,42.98
2023-05-01T07:06:16.864Z,42.98
2023-05-01T07:07:12.374Z,42.77
2023-05-01T07:08:07.907Z,43.18
2023-05-01T07:09:03.435Z,42.86
2023-05-01T07:09:59.470Z,41.94
2023-05-01T07:10:55.506Z,43.37
2023-05-01T07:11:51.035Z,42.74
2023-05-01T07:12:46.587Z,42.94
2023-05-01T07:13:42.111Z,42.41
2023-05-01T07:14:37.653Z,41.50
2023-05-01T07:15:33.161Z,41.60
2023-05-01T07:16:28.722Z,42.51
2023-05-01T07:17:24.281Z,41.70
2023-05-01T07:18:19.775Z,41.70
2023-05-01T07:19:15.333Z,42.29
2023-05-01T07:20:11.858Z,40.97
2023-05-01T07:21:07.380Z,41.07
2023-05-01T07:22:02.902Z,41.58
2023-05-01T07:22:58.430Z,41.36
2023-05-01T07:23:53.960Z,40.75
2023-05-01T07:24:49.489Z,41.97
2023-05-01T07:25:45.023Z,40.65
2023-05-01T07:26:40.536Z,40.34
2023-05-01T07:27:36.074Z,40.75
2023-05-01T07:28:31.616Z,40.65
2023-05-01T07:29:27.138Z,40.95
2023-05-01T07:30:22.696Z,40.83
2023-05-01T07:31:18.249Z,40.33
2023-05-01T07:32:13.874Z,40.24
2023-05-01T07:33:09.295Z,40.55
2023-05-01T07:34:04.908Z,40.14
2023-05-01T07:35:00.436Z,40.34
2023-05-01T07:35:55.960Z,40.24
2023-05-01T07:36:51.501Z,40.14
2023-05-01T07:37:47.019Z,40.24
2023-05-01T07:38:42.548Z,39.33
2023-05-01T07:39:38.071Z,40.04
2023-05-01T07:40:33.600Z,40.55
2023-05-01T07:41:29.135Z,39.94
2023-05-01T07:42:24.675Z,40.55
2023-05-01T07:43:20.210Z,40.22
2023-05-01T07:44:27.031Z,39.72
2023-05-01T07:45:22.537Z,40.53
2023-05-01T07:46:18.067Z,40.02
2023-05-01T07:47:13.605Z,40.12
2023-05-01T07:48:09.175Z,40.34
2023-05-01T07:49:04.658Z,40.12
2023-05-01T07:50:00.221Z,40.83
2023-05-01T07:50:55.778Z,41.24
2023-05-01T07:51:51.322Z,41.14
2023-05-01T07:52:47.578Z,41.93
2023-05-01T07:53:43.027Z,41.22
2023-05-01T07:54:38.593Z,41.22
2023-05-01T07:55:34.713Z,40.94
2023-05-01T07:56:30.165Z,40.12
2023-05-01T07:57:25.701Z,40.22
2023-05-01T07:58:21.228Z,40.22
2023-05-01T07:59:16.810Z,40.20
2023-05-01T08:00:12.392Z,41.42
2023-05-01T08:01:07.910Z,40.81
2023-05-01T08:02:03.506Z,40.41
2023-05-01T08:02:59.062Z,40.83
2023-05-01T08:03:54.675Z,40.00
2023-05-01T08:04:50.230Z,40.71
2023-05-01T08:05:45.656Z,40.31
2023-05-01T08:06:41.254Z,40.12
2023-05-01T08:07:36.729Z,39.31
2023-05-01T08:08:32.306Z,40.41
2023-05-01T08:09:27.824Z,40.71
2023-05-01T08:10:23.446Z,40.31
2023-05-01T08:11:18.904Z,40.20
2023-05-01T08:12:14.428Z,40.11
2023-05-01T08:13:09.960Z,40.61
2023-05-01T08:14:05.494Z,40.41
2023-05-01T08:15:01.004Z,40.11
2023-05-01T08:15:56.669Z,40.59
2023-05-01T08:16:52.153Z,40.39
2023-05-01T08:17:47.702Z,40.29
2023-05-01T08:18:43.211Z,40.19
2023-05-01T08:19:38.780Z,40.19
2023-05-01T08:20:34.303Z,40.29
2023-05-01T08:21:29.976Z,40.29
2023-05-01T08:22:25.554Z,40.47
2023-05-01T08:23:21.582Z,40.19
2023-05-01T08:24:17.148Z,39.76
2023-05-01T08:25:12.691Z,40.88
2023-05-01T08:26:09.858Z,40.77
2023-05-01T08:27:06.512Z,40.88
2023-05-01T08:28:02.003Z,40.27
2023-05-01T08:28:57.700Z,39.78
2023-05-01T08:29:53.874Z,40.27
2023-05-01T08:30:49.492Z,39.26
2023-05-01T08:31:34.004Z,39.76
2023-05-01T08:32:29.517Z,39.24
2023-05-01T08:33:25.023Z,40.25
2023-05-01T08:34:20.561Z,39.75
2023-05-01T08:35:16.109Z,40.21
2023-05-01T08:36:11.652Z,38.39
2023-05-01T08:36:56.318Z,38.07
2023-05-01T08:37:51.856Z,38.88
2023-05-01T08:38:47.397Z,38.88
2023-05-01T08:39:42.950Z,37.75
2023-05-01T08:40:38.493Z,36.84
2023-05-01T08:41:34.028Z,37.35
2023-05-01T08:42:32.135Z,37.85
2023-05-01T08:43:14.242Z,36.54
2023-05-01T08:44:09.784Z,37.53
2023-05-01T08:45:05.333Z,38.75
2023-05-01T08:46:00.865Z,37.33
2023-05-01T08:46:56.465Z,37.82
2023-05-01T08:47:52.000Z,36.40
2023-05-01T08:48:47.470Z,36.00
2023-05-01T08:49:43.019Z,36.22
2023-05-01T08:50:38.583Z,35.92
2023-05-01T08:51:34.711Z,35.72
2023-05-01T08:52:30.256Z,35.70
2023-05-01T08:53:25.786Z,35.10
2023-05-01T08:54:21.324Z,34.49
2023-05-01T08:55:16.868Z,34.49
2023-05-01T08:56:12.409Z,34.28
2023-05-01T08:57:10.236Z,35.78
2023-05-01T08:58:03.527Z,35.38
2023-05-01T08:58:59.012Z,34.27
2023-05-01T08:59:54.725Z,34.66
2023-05-01T09:00:50.076Z,34.66
2023-05-01T09:01:45.676Z,34.56
2023-05-01T09:02:30.374Z,34.16
2023-05-01T09:03:25.940Z,34.24
2023-05-01T09:04:21.495Z,34.24
2023-05-01T09:05:06.029Z,34.24
2023-05-01T09:06:01.616Z,33.44
2023-05-01T09:06:57.110Z,33.92
2023-05-01T09:07:52.646Z,34.52
2023-05-01T09:08:48.195Z,33.91
2023-05-01T09:09:43.729Z,33.40
2023-05-01T09:10:39.288Z,34.39
2023-05-01T09:11:34.829Z,34.39
2023-05-01T09:12:30.403Z,34.09
2023-05-01T09:13:25.932Z,34.58
2023-05-01T09:14:21.482Z,34.07
2023-05-01T09:15:17.029Z,33.65
2023-05-01T09:16:12.640Z,33.36
2023-05-01T09:17:08.187Z,33.64
2023-05-01T09:17:52.927Z,33.94
2023-05-01T09:18:48.394Z,32.93
2023-05-01T09:19:43.955Z,31.53
2023-05-01T09:20:39.504Z,33.12
2023-05-01T09:21:35.061Z,32.12
2023-05-01T09:22:30.591Z,31.50
2023-05-01T09:23:26.167Z,31.20
2023-05-01T09:24:21.752Z,32.18
2023-05-01T09:25:17.316Z,31.48
2023-05-01T09:26:12.836Z,32.39
2023-05-01T09:27:08.393Z,32.37
2023-05-01T09:28:03.945Z,32.37
2023-05-01T09:28:59.508Z,31.57
2023-05-01T09:29:55.298Z,32.26
2023-05-01T09:30:50.607Z,30.35
2023-05-01T09:31:35.327Z,30.76
2023-05-01T09:32:30.875Z,30.64
2023-05-01T09:33:26.446Z,31.35
2023-05-01T09:34:21.952Z,31.82
2023-05-01T09:35:17.524Z,30.82
2023-05-01T09:36:13.065Z,29.93
2023-05-01T09:37:08.605Z,30.52
2023-05-01T09:38:04.168Z,30.82
2023-05-01T09:38:59.704Z,30.31
2023-05-01T09:39:55.388Z,31.91
2023-05-01T09:40:50.783Z,29.41
2023-05-01T09:41:46.327Z,30.69
2023-05-01T09:42:41.903Z,31.20
2023-05-01T09:43:37.477Z,31.88
2023-05-01T09:44:33.140Z,31.58
2023-05-01T09:45:28.705Z,31.67
2023-05-01T09:46:24.292Z,29.27
2023-05-01T09:47:19.795Z,29.47
2023-05-01T09:48:15.358Z,30.75
2023-05-01T09:49:10.930Z,30.05
2023-05-01T09:50:06.467Z,29.95
2023-05-01T09:51:02.003Z,30.54
2023-05-01T09:51:57.617Z,29.44
2023-05-01T09:52:42.305Z,29.72
2023-05-01T09:53:37.869Z,29.93
2023-05-01T09:54:33.420Z,29.11
2023-05-01T09:55:28.983Z,29.91
2023-05-01T09:56:13.679Z,29.11
2023-05-01T09:57:09.220Z,27.81
2023-05-01T09:58:04.828Z,29.11
2023-05-01T09:59:00.414Z,29.21
2023-05-01T09:59:56.112Z,28.20
2023-05-01T10:00:51.573Z,28.60
2023-05-01T10:01:47.183Z,28.90
2023-05-01T10:02:42.723Z,28.70
2023-05-01T10:03:38.242Z,28.90
2023-05-01T10:04:33.695Z,28.58
2023-05-01T10:05:29.288Z,28.77
2023-05-01T10:06:24.834Z,28.27
2023-05-01T10:07:20.357Z,28.97
2023-05-01T10:08:15.902Z,28.46
2023-05-01T10:09:12.040Z,27.56
2023-05-01T10:10:07.581Z,27.06
2023-05-01T10:11:03.125Z,26.97
2023-05-01T10:11:58.681Z,27.36
2023-05-01T10:12:54.232Z,27.47
2023-05-01T10:13:49.776Z,26.87
2023-05-01T10:14:45.328Z,26.37
2023-05-01T10:15:40.861Z,27.06
2023-05-01T10:16:36.439Z,26.87
2023-05-01T10:17:32.066Z,27.47
2023-05-01T10:18:27.561Z,27.17
2023-05-01T10:19:23.076Z,27.17
2023-05-01T10:20:18.650Z,27.15
2023-05-01T10:21:14.245Z,26.56
2023-05-01T10:22:09.785Z,26.75
2023-05-01T10:22:54.462Z,26.35
2023-05-01T10:23:50.025Z,26.65
2023-05-01T10:24:45.583Z,27.45
2023-05-01T10:25:41.124Z,26.86
2023-05-01T10:26:36.669Z,26.56
2023-05-01T10:27:32.223Z,26.15
2023-05-01T10:28:27.754Z,26.56
2023-05-01T10:29:23.292Z,25.45
2023-05-01T10:30:18.874Z,26.33
2023-05-01T10:31:14.452Z,26.82
2023-05-01T10:31:59.206Z,26.13
2023-05-01T10:32:54.707Z,26.33
2023-05-01T10:33:50.328Z,26.82
2023-05-01T10:34:45.755Z,27.42
2023-05-01T10:35:41.326Z,25.73
2023-05-01T10:36:36.856Z,26.44
2023-05-01T10:37:32.411Z,25.84
2023-05-01T10:38:17.084Z,26.53
2023-05-01T10:39:12.626Z,26.33
2023-05-01T10:40:08.173Z,26.23
2023-05-01T10:40:52.861Z,25.93
2023-05-01T10:41:48.418Z,26.43
2023-05-01T10:42:43.973Z,26.53
2023-05-01T10:43:39.532Z,25.23
2023-05-01T10:44:35.255Z,25.32
2023-05-01T10:45:30.636Z,25.04
2023-05-01T10:46:26.220Z,24.44
2023-05-01T10:47:21.763Z,25.32
2023-05-01T10:48:17.254Z,25.02
2023-05-01T10:49:12.801Z,25.62
2023-05-01T10:50:08.352Z,25.32
2023-05-01T10:51:03.894Z,25.32
2023-05-01T10:51:59.468Z,25.42
2023-05-01T10:52:55.004Z,25.91
2023-05-01T10:53:50.551Z,25.12
2023-05-01T10:54:46.116Z,25.31
2023-05-01T10:55:41.632Z,25.50
2023-05-01T10:56:26.304Z,24.51
2023-05-01T10:57:21.872Z,25.30
2023-05-01T10:58:17.421Z,25.00
2023-05-01T10:59:13.077Z,23.82
2023-05-01T11:00:08.541Z,24.82
2023-05-01T11:01:04.085Z,24.42
2023-05-01T11:01:48.781Z,24.93
2023-05-01T11:02:44.330Z,25.01
2023-05-01T11:03:39.848Z,25.32
2023-05-01T11:04:35.411Z,25.13
2023-05-01T11:05:28.870Z,25.23
2023-05-01T11:06:15.836Z,25.04
2023-05-01T11:07:11.438Z,25.24
2023-05-01T11:08:06.725Z,25.45
2023-05-01T11:09:02.274Z,25.95
2023-05-01T11:09:57.821Z,25.24
2023-05-01T11:10:53.365Z,26.04
2023-05-01T11:11:48.916Z,26.74
2023-05-01T11:12:44.449Z,25.35
2023-05-01T11:13:39.986Z,24.65
2023-05-01T11:14:35.544Z,25.15
2023-05-01T11:15:31.088Z,25.06
2023-05-01T11:16:26.652Z,25.36
2023-05-01T11:17:22.288Z,25.66
2023-05-01T11:18:17.739Z,25.86
2023-05-01T11:19:13.314Z,25.48
2023-05-01T11:20:08.848Z,25.37
2023-05-01T11:21:04.412Z,25.77
2023-05-01T11:21:59.989Z,25.99
2023-05-01T11:22:55.519Z,26.18
2023-05-01T11:23:51.071Z,25.20
2023-05-01T11:24:46.658Z,26.21
2023-05-01T11:25:42.159Z,26.39
2023-05-01T11:26:26.830Z,26.20
2023-05-01T11:27:22.394Z,26.59
2023-05-01T11:28:17.953Z,26.59
2023-05-01T11:29:13.493Z,25.41
2023-05-01T11:30:09.077Z,26.62
2023-05-01T11:31:04.692Z,26.10
2023-05-01T11:32:00.278Z,26.10
2023-05-01T11:32:55.774Z,26.40
2023-05-01T11:33:51.268Z,26.12
2023-05-01T11:34:46.814Z,26.61
2023-05-01T11:35:42.360Z,25.01
2023-05-01T11:36:37.903Z,24.33
2023-05-01T11:37:33.465Z,25.63
2023-05-01T11:38:29.046Z,25.84
2023-05-01T11:39:24.583Z,26.12
2023-05-01T11:40:20.161Z,26.01
2023-05-01T11:41:15.673Z,25.51
2023-05-01T11:42:11.270Z,25.41
2023-05-01T11:43:06.786Z,25.50
2023-05-01T11:44:02.361Z,25.40
2023-05-01T11:44:58.192Z,25.49
2023-05-01T11:45:42.635Z,25.50
2023-05-01T11:46:27.443Z,25.49
2023-05-01T11:47:22.888Z,25.19
2023-05-01T11:48:18.450Z,25.89
2023-05-01T11:49:03.058Z,25.68
2023-05-01T11:49:47.723Z,25.19
2023-05-01T11:50:43.274Z,25.97
2023-05-01T11:51:38.833Z,25.67
2023-05-01T11:52:23.517Z,25.27
2023-05-01T11:53:19.085Z,25.57
2023-05-01T11:54:15.832Z,25.77
2023-05-01T11:55:10.158Z,25.48
2023-05-01T11:56:13.284Z,24.77
2023-05-01T11:57:01.269Z,25.57
2023-05-01T11:57:56.795Z,25.38
2023-05-01T11:58:52.373Z,25.38
2023-05-01T11:59:47.884Z,24.99